createdAt,value
2023-04-01T00:04:44.723Z,36.13
2023-04-01T00:09:36.937Z,35.75
2023-04-01T00:14:31.321Z,44.20
2023-04-01T00:19:22.638Z,47.55
2023-04-01T00:24:15.552Z,55.17
2023-04-01T00:29:10.800Z,59.77
2023-04-01T00:34:11.733Z,54.17
2023-04-01T00:39:21.005Z,54.40
2023-04-01T00:44:45.709Z,54.17
2023-04-01T00:49:48.845Z,46.40
2023-04-01T00:54:48.169Z,40.78
2023-04-01T00:59:44.222Z,42.00
2023-04-01T01:04:39.438Z,50.13
2023-04-01T01:09:42.395Z,44.25
2023-04-01T01:14:56.339Z,49.95
2023-04-01T01:20:28.906Z,54.95
2023-04-01T01:25:44.413Z,41.50
2023-04-01T01:30:53.110Z,41.20
2023-04-01T01:35:54.568Z,38.90
2023-04-01T01:40:57.138Z,34.30
2023-04-01T01:45:52.176Z,34.15
2023-04-01T01:50:55.592Z,38.47
2023-04-01T01:55:48.632Z,34.28
2023-04-01T02:00:56.236Z,30.17
2023-04-01T02:05:55.851Z,33.88
2023-04-01T02:10:55.598Z,30.95
2023-04-01T02:15:52.989Z,34.10
2023-04-01T02:20:51.156Z,36.80
2023-04-01T02:25:44.186Z,41.93
2023-04-01T02:30:45.180Z,34.47
2023-04-01T02:35:44.936Z,36.08
2023-04-01T02:40:56.838Z,32.80
2023-04-01T02:46:00.990Z,30.83
2023-04-01T02:50:58.934Z,26.63
2023-04-01T02:55:57.936Z,25.93
2023-04-01T03:00:49.712Z,22.83
2023-04-01T03:05:50.717Z,21.50
2023-04-01T03:10:46.574Z,17.77
2023-04-01T03:16:02.877Z,12.35
2023-04-01T03:21:17.445Z,11.30
2023-04-01T03:26:10.283Z,10.40
2023-04-01T03:31:05.488Z,6.27
2023-04-01T03:36:08.016Z,8.02
2023-04-01T03:41:03.127Z,7.13
2023-04-01T03:45:59.599Z,6.55
2023-04-01T03:50:54.775Z,8.35
2023-04-01T03:55:47.243Z,10.75
2023-04-01T04:00:41.929Z,12.55
2023-04-01T04:05:38.209Z,17.73
2023-04-01T04:10:33.034Z,18.25
2023-04-01T04:15:23.585Z,21.33
2023-04-01T04:20:17.481Z,21.60
2023-04-01T04:25:16.237Z,17.85
2023-04-01T04:30:21.176Z,23.93
2023-04-01T04:35:35.355Z,27.42
2023-04-01T04:40:26.362Z,27.07
2023-04-01T04:45:22.682Z,30.70
2023-04-01T04:50:47.397Z,29.15
2023-04-01T04:55:42.160Z,32.40
2023-04-01T05:00:53.599Z,26.33
2023-04-01T05:06:01.500Z,20.07
2023-04-01T05:10:56.172Z,24.75
2023-04-01T05:16:04.906Z,24.33
2023-04-01T05:21:01.527Z,20.75
2023-04-01T05:25:54.939Z,23.63
2023-04-01T05:30:55.593Z,26.63
2023-04-01T05:36:14.443Z,25.85
2023-04-01T05:41:08.210Z,28.60
2023-04-01T05:46:24.881Z,29.52
2023-04-01T05:51:46.127Z,25.08
2023-04-01T05:56:38.048Z,25.85
2023-04-01T06:01:34.310Z,25.00
2023-04-01T06:06:39.873Z,28.47
2023-04-01T06:11:46.646Z,28.65
2023-04-01T06:16:52.398Z,27.38
2023-04-01T06:22:26.706Z,28.98
2023-04-01T06:27:40.633Z,31.45
2023-04-01T06:32:59.728Z,30.50
2023-04-01T06:38:32.558Z,30.10
2023-04-01T06:43:40.938Z,26.17
2023-04-01T06:49:13.795Z,27.60
2023-04-01T06:54:33.480Z,27.05
2023-04-01T06:59:50.539Z,31.17
2023-04-01T07:04:50.732Z,26.83
2023-04-01T07:09:48.516Z,30.02
2023-04-01T07:15:25.158Z,30.42
2023-04-01T07:20:27.329Z,31.58
2023-04-01T07:25:34.692Z,28.27
2023-04-01T07:31:20.973Z,26.83
2023-04-01T07:36:22.422Z,23.60
2023-04-01T07:41:24.568Z,26.90
2023-04-01T07:46:36.603Z,24.20
2023-04-01T07:51:38.755Z,22.52
2023-04-01T07:56:39.259Z,22.27
2023-04-01T08:01:46.156Z,21.53
2023-04-01T08:06:42.271Z,20.58
2023-04-01T08:11:47.550Z,15.50
2023-04-01T08:17:22.345Z,10.80
2023-04-01T08:22:57.614Z,11.23
2023-04-01T08:28:02.419Z,8.13
2023-04-01T08:33:10.378Z,5.43
2023-04-01T08:38:10.460Z,6.05
2023-04-01T08:43:14.361Z,5.38
2023-04-01T08:48:42.245Z,5.93
2023-04-01T08:53:58.614Z,7.47
2023-04-01T08:59:17.449Z,10.32
2023-04-01T09:04:30.737Z,10.73
2023-04-01T09:09:58.500Z,10.63
2023-04-01T09:15:24.012Z,10.35
2023-04-01T09:20:40.469Z,9.13
2023-04-01T09:25:59.906Z,13.57
2023-04-01T09:31:26.092Z,12.53
2023-04-01T09:36:53.382Z,13.70
2023-04-01T09:42:07.398Z,11.07
2023-04-01T09:47:19.535Z,13.32
2023-04-01T09:52:33.677Z,11.30
2023-04-01T09:58:08.650Z,9.33
2023-04-01T10:03:56.995Z,11.02
2023-04-01T10:09:25.375Z,10.27
2023-04-01T10:14:51.399Z,10.83
2023-04-01T10:20:12.634Z,14.27
2023-04-01T10:25:35.238Z,13.30
2023-04-01T10:31:11.920Z,10.73
2023-04-01T10:36:39.271Z,12.90
2023-04-01T10:42:04.435Z,10.00
2023-04-01T10:47:59.870Z,12.75
2023-04-01T10:53:23.591Z,9.05
2023-04-01T10:59:12.027Z,5.43
2023-04-01T11:05:05.155Z,5.45
2023-04-01T11:11:04.708Z,4.27
2023-04-01T11:16:29.181Z,5.18
2023-04-01T11:22:13.508Z,5.90
2023-04-01T11:27:27.990Z,6.28
2023-04-01T11:32:45.657Z,4.88
2023-04-01T11:37:49.358Z,3.70
2023-04-01T11:43:05.620Z,3.47
2023-04-01T11:48:50.866Z,4.25
2023-04-01T11:53:53.109Z,3.97
2023-04-01T11:59:23.252Z,6.47
2023-04-01T12:04:44.958Z,6.88
2023-04-01T12:09:45.948Z,8.33
2023-04-01T12:14:46.139Z,7.83
2023-04-01T12:19:50.180Z,7.28
2023-04-01T12:24:53.088Z,9.03
2023-04-01T12:30:20.326Z,7.97
2023-04-01T12:35:50.311Z,10.10
2023-04-01T12:41:13.696Z,12.45
2023-04-01T12:46:15.708Z,11.15
2023-04-01T12:51:45.318Z,13.18
2023-04-01T12:56:57.809Z,11.13
2023-04-01T13:02:16.369Z,12.07
2023-04-01T13:07:28.110Z,11.87
2023-04-01T13:12:41.295Z,14.07
2023-04-01T13:17:41.997Z,12.20
2023-04-01T13:22:43.618Z,10.32
2023-04-01T13:27:43.737Z,13.03
2023-04-01T13:32:45.712Z,10.63
2023-04-01T13:37:50.424Z,10.52
2023-04-01T13:42:56.002Z,8.48
2023-04-01T13:48:09.582Z,10.88
2023-04-01T13:53:31.187Z,10.43
2023-04-01T13:58:59.498Z,11.73
2023-04-01T14:04:14.664Z,11.05
2023-04-01T14:09:39.528Z,12.75
2023-04-01T14:14:52.428Z,13.05
2023-04-01T14:20:06.454Z,15.32
2023-04-01T14:25:26.641Z,15.00
2023-04-01T14:30:45.795Z,15.88
2023-04-01T14:35:49.713Z,16.63
2023-04-01T14:41:08.052Z,15.77
2023-04-01T14:46:19.623Z,14.00
2023-04-01T14:51:25.649Z,15.40
2023-04-01T14:56:16.817Z,13.73
2023-04-01T15:01:26.495Z,11.35
2023-04-01T15:06:44.392Z,13.23
2023-04-01T15:11:56.534Z,10.10
2023-04-01T15:17:01.225Z,15.30
2023-04-01T15:22:11.079Z,14.17
2023-04-01T15:27:21.180Z,13.15
2023-04-01T15:32:24.319Z,11.32
2023-04-01T15:37:30.380Z,9.85
2023-04-01T15:42:42.989Z,11.73
2023-04-01T15:47:43.457Z,12.90
2023-04-01T15:52:50.967Z,13.47
2023-04-01T15:57:50.288Z,13.45
2023-04-01T16:02:51.415Z,13.93
2023-04-01T16:07:53.682Z,12.07
2023-04-01T16:12:57.646Z,12.38
2023-04-01T16:18:33.438Z,12.85
2023-04-01T16:23:38.023Z,13.20
2023-04-01T16:28:35.339Z,10.80
2023-04-01T16:33:42.847Z,12.27
2023-04-01T16:38:43.227Z,12.23
2023-04-01T16:43:48.346Z,13.85
2023-04-01T16:49:04.133Z,10.27
2023-04-01T16:54:08.271Z,8.23
2023-04-01T16:59:09.231Z,5.90
2023-04-01T17:04:14.501Z,7.05
2023-04-01T17:09:29.919Z,8.73
2023-04-01T17:14:29.175Z,9.23
2023-04-01T17:19:38.281Z,11.13
2023-04-01T17:24:44.838Z,12.32
2023-04-01T17:30:00.912Z,10.70
2023-04-01T17:35:08.911Z,7.77
2023-04-01T17:40:13.440Z,7.22
2023-04-01T17:45:16.184Z,6.10
2023-04-01T17:50:24.723Z,5.45
2023-04-01T17:55:48.765Z,4.20
2023-04-01T18:00:55.018Z,5.57
2023-04-01T18:06:02.215Z,3.80
2023-04-01T18:11:16.125Z,3.40
2023-04-01T18:16:29.742Z,3.63
2023-04-01T18:21:33.603Z,4.20
2023-04-01T18:26:28.721Z,4.82
2023-04-01T18:31:25.240Z,4.75
2023-04-01T18:36:26.539Z,3.95
2023-04-01T18:41:20.586Z,4.47
2023-04-01T18:46:24.043Z,4.00
2023-04-01T18:51:28.558Z,4.13
2023-04-01T18:56:29.677Z,3.17
2023-04-01T19:01:29.562Z,2.73
2023-04-01T19:06:34.093Z,3.88
2023-04-01T19:11:38.464Z,3.33
2023-04-01T20:31:06.250Z,7.78
2023-04-01T20:36:19.715Z,10.00
2023-04-01T20:41:18.027Z,10.90
2023-04-01T20:46:18.758Z,10.73
2023-04-01T20:51:17.885Z,10.35
2023-04-01T20:56:34.935Z,10.57
2023-04-01T21:01:37.520Z,10.40
2023-04-01T21:07:05.817Z,8.33
2023-04-01T21:12:06.037Z,8.27
2023-04-01T21:17:07.259Z,9.60
2023-04-01T21:22:27.555Z,8.00
2023-04-01T21:27:34.242Z,8.43
2023-04-01T21:32:40.993Z,8.27
2023-04-01T21:37:54.573Z,9.50
2023-04-01T21:42:53.235Z,10.77
2023-04-01T21:48:31.419Z,10.77
2023-04-01T21:54:04.157Z,9.13
2023-04-01T21:59:28.758Z,10.32
2023-04-01T22:04:46.393Z,9.70
2023-04-01T22:09:43.247Z,8.80
2023-04-01T22:14:46.228Z,8.30
2023-04-01T22:19:48.134Z,8.52
2023-04-01T22:24:48.487Z,8.30
2023-04-01T22:29:52.011Z,8.27
2023-04-01T22:34:51.699Z,8.70
2023-04-01T22:40:00.970Z,5.38
2023-04-01T22:49:56.580Z,5.88
2023-04-01T23:19:37.750Z,11.63
2023-04-01T23:24:38.480Z,8.35
2023-04-01T23:29:30.858Z,6.47
2023-04-01T23:34:29.056Z,10.68
2023-04-01T23:39:26.711Z,12.48
2023-04-01T23:44:21.008Z,8.98
2023-04-01T23:49:18.325Z,13.15
